createdAt,value
2018-08-22T00:00:28.556Z,21.38
2018-08-22T00:00:59.664Z,21.42
2018-08-22T00:01:30.799Z,21.43
2018-08-22T00:02:01.938Z,21.44
2018-08-22T00:02:33.044Z,21.48
2018-08-22T00:03:04.160Z,21.44
2018-08-22T00:03:35.272Z,21.43
2018-08-22T00:04:06.380Z,21.43
2018-08-22T00:04:37.486Z,21.44
2018-08-22T00:05:08.592Z,21.44
2018-08-22T00:05:39.745Z,21.43
2018-08-22T00:06:10.914Z,21.42
2018-08-22T00:06:42.047Z,21.42
2018-08-22T00:07:13.156Z,21.40
2018-08-22T00:07:44.272Z,21.40
2018-08-22T00:08:15.384Z,21.41
2018-08-22T00:08:46.538Z,21.35
2018-08-22T00:09:17.655Z,21.35
2018-08-22T00:09:48.799Z,21.31
2018-08-22T00:10:19.914Z,21.28
2018-08-22T00:10:51.023Z,21.26
2018-08-22T00:11:22.131Z,21.24
2018-08-22T00:11:53.280Z,21.19
2018-08-22T00:12:24.400Z,21.16
2018-08-22T00:12:55.516Z,21.16
2018-08-22T00:13:26.623Z,21.12
2018-08-22T00:13:57.791Z,21.15
2018-08-22T00:14:28.904Z,21.16
2018-08-22T00:15:00.051Z,21.20
2018-08-22T00:15:31.152Z,21.20
2018-08-22T00:16:02.256Z,21.22
2018-08-22T00:16:33.375Z,21.22
2018-08-22T00:17:04.525Z,21.22
2018-08-22T00:17:35.641Z,21.19
2018-08-22T00:18:06.749Z,21.17
2018-08-22T00:18:37.860Z,21.17
2018-08-22T00:19:08.980Z,21.18
2018-08-22T00:19:40.099Z,21.18
2018-08-22T00:20:11.224Z,21.19
2018-08-22T00:20:42.377Z,21.19
2018-08-22T00:21:13.497Z,21.17
2018-08-22T00:21:44.636Z,21.17
2018-08-22T00:22:15.744Z,21.15
2018-08-22T00:22:46.858Z,21.14
2018-08-22T00:23:17.980Z,21.14
2018-08-22T00:23:49.091Z,21.14
2018-08-22T00:24:20.200Z,21.14
2018-08-22T00:24:51.352Z,21.15
2018-08-22T00:25:22.484Z,21.14
2018-08-22T00:25:53.615Z,21.14
2018-08-22T00:26:24.719Z,21.12
2018-08-22T00:26:55.920Z,21.11
2018-08-22T00:27:27.002Z,21.10
2018-08-22T00:27:58.159Z,21.07
2018-08-22T00:28:29.271Z,21.01
2018-08-22T00:29:00.397Z,20.94
2018-08-22T00:29:31.511Z,20.87
2018-08-22T00:30:02.634Z,20.83
2018-08-22T00:30:34.464Z,20.77
2018-08-22T00:31:05.579Z,20.70
2018-08-22T00:31:36.697Z,20.65
2018-08-22T00:32:07.857Z,20.64
2018-08-22T00:32:38.964Z,20.61
2018-08-22T00:33:10.096Z,20.56
2018-08-22T00:33:41.209Z,20.53
2018-08-22T00:34:12.319Z,20.52
2018-08-22T00:34:43.424Z,20.50
2018-08-22T00:35:14.533Z,20.48
2018-08-22T00:35:45.652Z,20.44
2018-08-22T00:36:16.765Z,20.41
2018-08-22T00:36:47.881Z,20.36
2018-08-22T00:37:19.032Z,20.37
2018-08-22T00:37:50.152Z,20.37
2018-08-22T00:38:21.261Z,20.35
2018-08-22T00:38:52.376Z,20.32
2018-08-22T00:39:23.480Z,20.28
2018-08-22T00:39:54.610Z,20.22
2018-08-22T00:40:25.724Z,20.20
2018-08-22T00:40:56.831Z,20.17
2018-08-22T00:41:27.954Z,20.16
2018-08-22T00:41:59.059Z,20.14
2018-08-22T00:42:30.201Z,20.11
2018-08-22T00:43:01.317Z,20.06
2018-08-22T00:43:32.435Z,20.03
2018-08-22T00:44:03.560Z,19.98
2018-08-22T00:44:34.668Z,19.95
2018-08-22T00:45:05.793Z,19.94
2018-08-22T00:45:37.482Z,19.92
2018-08-22T00:46:08.608Z,19.91
2018-08-22T00:46:39.732Z,19.88
2018-08-22T00:47:10.844Z,19.86
2018-08-22T00:47:42.078Z,19.87
2018-08-22T00:48:13.285Z,19.86
2018-08-22T00:48:44.448Z,19.86
2018-08-22T00:49:15.624Z,19.86
2018-08-22T00:49:46.741Z,19.85
2018-08-22T00:50:17.860Z,19.85
2018-08-22T00:50:48.970Z,19.88
2018-08-22T00:51:20.089Z,19.90
2018-08-22T00:51:51.208Z,19.91
2018-08-22T00:52:22.322Z,19.93
2018-08-22T00:52:53.440Z,19.95
2018-08-22T00:53:24.608Z,19.97
2018-08-22T00:53:55.715Z,19.99
2018-08-22T00:54:26.874Z,20.03
2018-08-22T00:54:58.107Z,20.05
2018-08-22T00:55:29.289Z,20.09
2018-08-22T00:56:00.416Z,20.12
2018-08-22T00:56:31.528Z,20.15
2018-08-22T00:57:02.707Z,20.18
2018-08-22T00:57:33.816Z,20.20
2018-08-22T00:58:05.048Z,20.20
2018-08-22T00:58:36.208Z,20.18
2018-08-22T00:59:07.436Z,20.16
2018-08-22T00:59:38.677Z,20.15
2018-08-22T01:00:09.800Z,20.16
2018-08-22T01:00:40.956Z,20.17
2018-08-22T01:01:12.189Z,20.19
2018-08-22T01:01:43.424Z,20.19
2018-08-22T01:02:14.549Z,20.18
2018-08-22T01:02:45.722Z,20.18
2018-08-22T01:03:16.881Z,20.18
2018-08-22T01:03:48.064Z,20.17
2018-08-22T01:04:19.291Z,20.15
2018-08-22T01:04:50.473Z,20.14
2018-08-22T01:05:21.693Z,20.13
2018-08-22T01:05:52.905Z,20.10
2018-08-22T01:06:24.024Z,20.09
2018-08-22T01:06:55.200Z,20.06
2018-08-22T01:07:26.317Z,20.05
2018-08-22T01:07:57.541Z,20.01
2018-08-22T01:08:28.660Z,19.98
2018-08-22T01:08:59.777Z,19.96
2018-08-22T01:09:30.956Z,19.96
2018-08-22T01:10:02.144Z,19.94
2018-08-22T01:10:33.261Z,19.93
2018-08-22T01:11:04.472Z,19.92
2018-08-22T01:11:35.592Z,19.94
2018-08-22T01:12:06.825Z,19.93
2018-08-22T01:12:38.013Z,19.92
2018-08-22T01:13:09.182Z,19.93
2018-08-22T01:13:40.300Z,19.94
2018-08-22T01:14:11.464Z,19.96
2018-08-22T01:14:42.635Z,19.99
2018-08-22T01:15:13.869Z,20.02
2018-08-22T01:15:45.055Z,20.03
2018-08-22T01:16:16.256Z,20.06
2018-08-22T01:16:47.485Z,20.08
2018-08-22T01:17:18.650Z,20.09
2018-08-22T01:17:49.885Z,20.08
2018-08-22T01:18:21.001Z,20.08
2018-08-22T01:18:52.169Z,20.05
2018-08-22T01:19:23.296Z,20.07
2018-08-22T01:19:54.473Z,20.08
2018-08-22T01:20:25.578Z,20.05
2018-08-22T01:20:56.692Z,20.02
2018-08-22T01:21:27.799Z,20.01
2018-08-22T01:21:58.968Z,19.98
2018-08-22T01:22:30.251Z,19.96
2018-08-22T01:23:01.403Z,19.94
2018-08-22T01:23:32.571Z,19.90
2018-08-22T01:24:03.801Z,19.87
2018-08-22T01:24:35.030Z,19.84
2018-08-22T01:25:06.151Z,19.82
2018-08-22T01:25:37.321Z,19.80
2018-08-22T01:26:08.613Z,19.79
2018-08-22T01:26:39.853Z,19.78
2018-08-22T01:27:10.988Z,19.78
2018-08-22T01:27:42.200Z,19.76
2018-08-22T01:28:13.386Z,19.73
2018-08-22T01:28:44.516Z,19.69
2018-08-22T01:29:15.636Z,19.66
2018-08-22T01:29:46.856Z,19.64
2018-08-22T01:30:17.979Z,19.62
2018-08-22T01:30:49.104Z,19.62
2018-08-22T01:31:20.338Z,19.59
2018-08-22T01:31:51.512Z,19.59
2018-08-22T01:32:22.746Z,19.59
2018-08-22T01:32:53.914Z,19.63
2018-08-22T01:33:25.100Z,19.66
2018-08-22T01:33:56.317Z,19.64
2018-08-22T01:34:27.500Z,19.65
2018-08-22T01:34:58.742Z,19.64
2018-08-22T01:35:29.955Z,19.63
2018-08-22T01:36:01.205Z,19.61
2018-08-22T01:36:32.328Z,19.57
2018-08-22T01:37:03.451Z,19.57
2018-08-22T01:37:34.569Z,19.52
2018-08-22T01:38:05.791Z,19.48
2018-08-22T01:38:36.971Z,19.49
2018-08-22T01:39:08.090Z,19.48
2018-08-22T01:39:39.365Z,19.46
2018-08-22T01:40:10.492Z,19.45
2018-08-22T01:40:41.619Z,19.44
2018-08-22T01:41:12.749Z,19.40
2018-08-22T01:41:43.864Z,19.37
2018-08-22T01:42:15.039Z,19.32
2018-08-22T01:42:46.162Z,19.28
2018-08-22T01:43:17.293Z,19.24
2018-08-22T01:43:48.479Z,19.21
2018-08-22T01:44:19.600Z,19.17
2018-08-22T01:44:50.772Z,19.11
2018-08-22T01:45:21.959Z,19.08
2018-08-22T01:45:53.128Z,19.06
2018-08-22T01:46:24.316Z,18.98
2018-08-22T01:46:55.494Z,18.93
2018-08-22T01:47:26.671Z,18.88
2018-08-22T01:47:57.792Z,18.85
2018-08-22T01:48:28.911Z,18.83
2018-08-22T01:49:00.032Z,18.83
2018-08-22T01:49:31.236Z,18.83
2018-08-22T01:50:02.407Z,18.83
2018-08-22T01:50:33.606Z,18.83
2018-08-22T01:51:04.783Z,18.83
2018-08-22T01:51:35.966Z,18.83
2018-08-22T01:52:07.156Z,18.84
2018-08-22T01:52:38.275Z,18.84
2018-08-22T01:53:09.391Z,18.83
2018-08-22T01:53:40.617Z,18.84
2018-08-22T01:54:11.958Z,18.87
2018-08-22T01:54:43.126Z,18.87
2018-08-22T01:55:14.300Z,18.84
2018-08-22T01:55:45.418Z,18.83
2018-08-22T01:56:16.528Z,18.81
2018-08-22T01:56:47.771Z,18.81
2018-08-22T01:57:19.013Z,18.80
2018-08-22T01:57:50.132Z,18.79
2018-08-22T01:58:21.356Z,18.77
2018-08-22T01:58:52.705Z,18.74
2018-08-22T01:59:23.856Z,18.73
2018-08-22T01:59:55.034Z,18.72
2018-08-22T02:00:26.159Z,18.66
2018-08-22T02:00:57.285Z,18.62
2018-08-22T02:01:28.463Z,18.60
2018-08-22T02:01:59.589Z,18.57
2018-08-22T02:02:30.729Z,18.55
2018-08-22T02:03:01.901Z,18.53
2018-08-22T02:03:33.117Z,18.51
2018-08-22T02:04:04.244Z,18.51
2018-08-22T02:04:35.475Z,18.49
2018-08-22T02:05:06.598Z,18.50
2018-08-22T02:05:37.707Z,18.49
2018-08-22T02:06:08.922Z,18.46
2018-08-22T02:06:40.039Z,18.45
2018-08-22T02:07:11.246Z,18.43
2018-08-22T02:07:42.425Z,18.42
2018-08-22T02:08:13.543Z,18.40
2018-08-22T02:08:44.773Z,18.42
2018-08-22T02:09:15.889Z,18.42
2018-08-22T02:09:47.128Z,18.40
2018-08-22T02:10:18.242Z,18.41
2018-08-22T02:10:49.383Z,18.46
2018-08-22T02:11:20.599Z,18.48
2018-08-22T02:11:51.708Z,18.51
2018-08-22T02:12:22.831Z,18.52
2018-08-22T02:12:54.000Z,18.54
2018-08-22T02:13:25.115Z,18.53
2018-08-22T02:13:56.281Z,18.55
2018-08-22T02:14:27.427Z,18.52
2018-08-22T02:14:58.598Z,18.53
2018-08-22T02:15:29.723Z,18.54
2018-08-22T02:16:00.986Z,18.58
2018-08-22T02:16:32.176Z,18.61
2018-08-22T02:17:03.299Z,18.64
2018-08-22T02:17:34.457Z,18.66
2018-08-22T02:18:05.567Z,18.63
2018-08-22T02:18:36.685Z,18.62
2018-08-22T02:19:07.792Z,18.61
2018-08-22T02:19:38.968Z,18.61
2018-08-22T02:20:10.191Z,18.42
2018-08-22T02:20:41.300Z,18.59
2018-08-22T02:21:12.475Z,18.58
2018-08-22T02:21:43.598Z,18.58
2018-08-22T02:22:14.771Z,18.57
2018-08-22T02:22:46.018Z,18.55
2018-08-22T02:23:17.204Z,18.54
2018-08-22T02:23:48.381Z,18.55
2018-08-22T02:24:19.601Z,18.52
2018-08-22T02:24:50.764Z,18.51
2018-08-22T02:25:21.881Z,18.50
2018-08-22T02:25:53.059Z,18.48
2018-08-22T02:26:24.176Z,18.50
2018-08-22T02:26:55.285Z,18.48
2018-08-22T02:27:26.395Z,18.47
2018-08-22T02:27:57.674Z,18.50
2018-08-22T02:28:28.832Z,18.52
2018-08-22T02:28:59.953Z,18.54
2018-08-22T02:29:31.136Z,18.57
2018-08-22T02:30:02.300Z,18.59
2018-08-22T02:30:33.453Z,18.62
2018-08-22T02:31:04.569Z,18.62
2018-08-22T02:31:35.686Z,18.63
2018-08-22T02:32:06.910Z,18.60
2018-08-22T02:32:38.141Z,18.58
2018-08-22T02:33:09.293Z,18.60
2018-08-22T02:33:40.417Z,18.57
2018-08-22T02:34:11.532Z,18.54
2018-08-22T02:34:42.703Z,18.52
2018-08-22T02:35:13.832Z,18.50
2018-08-22T02:35:45.044Z,18.49
2018-08-22T02:36:16.163Z,18.44
2018-08-22T02:36:47.389Z,18.44
2018-08-22T02:37:18.606Z,18.45
2018-08-22T02:37:49.783Z,18.45
2018-08-22T02:38:21.037Z,18.45
2018-08-22T02:38:52.229Z,18.43
2018-08-22T02:39:23.401Z,18.41
2018-08-22T02:39:54.517Z,18.38
2018-08-22T02:40:25.692Z,18.35
2018-08-22T02:40:56.856Z,18.36
2018-08-22T02:41:27.975Z,18.36
2018-08-22T02:41:59.146Z,18.36
2018-08-22T02:42:30.333Z,18.35
2018-08-22T02:43:01.451Z,18.36
2018-08-22T02:43:32.588Z,18.39
2018-08-22T02:44:03.748Z,18.42
2018-08-22T02:44:34.930Z,18.44
2018-08-22T02:45:06.054Z,18.44
2018-08-22T02:45:37.235Z,18.47
2018-08-22T02:46:08.465Z,18.47
2018-08-22T02:46:39.653Z,18.45
2018-08-22T02:47:10.771Z,18.45
2018-08-22T02:47:41.949Z,18.47
2018-08-22T02:48:13.059Z,18.47
2018-08-22T02:48:44.240Z,18.47
2018-08-22T02:49:15.404Z,18.50
2018-08-22T02:49:46.578Z,18.53
2018-08-22T02:50:17.758Z,18.54
2018-08-22T02:50:48.875Z,18.53
2018-08-22T02:51:20.087Z,18.51
2018-08-22T02:51:51.207Z,18.50
2018-08-22T02:52:22.380Z,18.50
2018-08-22T02:52:53.496Z,18.48
2018-08-22T02:53:24.608Z,18.47
2018-08-22T02:53:55.792Z,18.45
2018-08-22T02:54:26.972Z,18.45
2018-08-22T02:54:58.138Z,18.45
2018-08-22T02:55:29.309Z,18.48
2018-08-22T02:56:00.523Z,18.50
2018-08-22T02:56:31.715Z,18.52
2018-08-22T02:57:02.831Z,18.55
2018-08-22T02:57:34.048Z,18.56
2018-08-22T02:58:05.220Z,18.56
2018-08-22T02:58:36.333Z,18.55
2018-08-22T02:59:07.452Z,18.56
2018-08-22T02:59:38.572Z,18.56
2018-08-22T03:00:09.752Z,18.57
2018-08-22T03:00:40.980Z,18.56
2018-08-22T03:01:12.109Z,18.59
2018-08-22T03:01:43.250Z,18.62
2018-08-22T03:02:14.375Z,18.62
2018-08-22T03:02:45.584Z,18.46
2018-08-22T03:03:16.717Z,18.64
2018-08-22T03:03:47.829Z,18.63
2018-08-22T03:04:18.943Z,18.62
2018-08-22T03:04:50.108Z,18.44
2018-08-22T03:05:21.232Z,18.58
2018-08-22T03:05:52.401Z,18.56
2018-08-22T03:06:23.582Z,18.41
2018-08-22T03:06:54.805Z,18.53
2018-08-22T03:07:25.968Z,18.54
2018-08-22T03:07:57.092Z,18.55
2018-08-22T03:08:28.269Z,18.56
2018-08-22T03:08:59.392Z,18.56
2018-08-22T03:09:30.568Z,18.54
2018-08-22T03:10:01.713Z,18.53
2018-08-22T03:10:32.836Z,18.52
2018-08-22T03:11:03.959Z,18.51
2018-08-22T03:11:35.165Z,18.51
2018-08-22T03:12:06.297Z,18.54
2018-08-22T03:12:37.424Z,18.51
2018-08-22T03:13:08.592Z,18.50
2018-08-22T03:13:39.704Z,18.48
2018-08-22T03:14:10.864Z,18.46
2018-08-22T03:14:42.056Z,18.46
2018-08-22T03:15:13.178Z,18.50
2018-08-22T03:15:44.392Z,18.50
2018-08-22T03:16:15.537Z,18.46
2018-08-22T03:16:46.744Z,18.44
2018-08-22T03:17:17.899Z,18.42
2018-08-22T03:17:49.018Z,18.40
2018-08-22T03:18:20.156Z,18.41
2018-08-22T03:18:51.322Z,18.40
2018-08-22T03:19:22.431Z,18.39
2018-08-22T03:19:53.622Z,18.41
2018-08-22T03:20:24.780Z,18.41
2018-08-22T03:20:55.992Z,18.41
2018-08-22T03:21:27.111Z,18.42
2018-08-22T03:21:58.224Z,18.47
2018-08-22T03:22:29.384Z,18.52
2018-08-22T03:23:00.507Z,18.55
2018-08-22T03:23:31.776Z,18.55
2018-08-22T03:24:02.909Z,18.58
2018-08-22T03:24:34.083Z,18.60
2018-08-22T03:25:05.284Z,18.63
2018-08-22T03:25:36.529Z,18.64
2018-08-22T03:26:07.761Z,18.67
2018-08-22T03:26:38.904Z,18.67
2018-08-22T03:27:10.120Z,18.66
2018-08-22T03:27:41.300Z,18.64
2018-08-22T03:28:12.538Z,18.64
2018-08-22T03:28:43.651Z,18.63
2018-08-22T03:29:14.877Z,18.61
2018-08-22T03:29:46.000Z,18.60
2018-08-22T03:30:17.123Z,18.59
2018-08-22T03:30:48.242Z,18.55
2018-08-22T03:31:19.410Z,18.52
2018-08-22T03:31:50.529Z,18.48
2018-08-22T03:32:21.687Z,18.44
2018-08-22T03:32:52.818Z,18.40
2018-08-22T03:33:23.944Z,18.42
2018-08-22T03:33:55.058Z,18.42
2018-08-22T03:34:26.249Z,18.42
2018-08-22T03:34:57.432Z,18.44
2018-08-22T03:35:28.597Z,18.44
2018-08-22T03:35:59.815Z,18.43
2018-08-22T03:36:30.925Z,18.47
2018-08-22T03:37:02.047Z,18.50
2018-08-22T03:37:33.279Z,18.51
2018-08-22T03:38:04.392Z,18.53
2018-08-22T03:38:35.556Z,18.54
2018-08-22T03:39:06.737Z,18.57
2018-08-22T03:39:37.912Z,18.59
2018-08-22T03:40:09.088Z,18.60
2018-08-22T03:40:40.257Z,18.60
2018-08-22T03:41:11.443Z,18.59
2018-08-22T03:41:42.559Z,18.60
2018-08-22T03:42:13.732Z,18.61
2018-08-22T03:42:44.883Z,18.61
2018-08-22T03:43:15.997Z,18.61
2018-08-22T03:43:47.128Z,18.63
2018-08-22T03:44:18.356Z,18.64
2018-08-22T03:44:49.528Z,18.63
2018-08-22T03:45:20.736Z,18.64
2018-08-22T03:45:51.912Z,18.66
2018-08-22T03:46:23.044Z,18.68
2018-08-22T03:46:54.201Z,18.67
2018-08-22T03:47:25.328Z,18.68
2018-08-22T03:47:56.447Z,18.70
2018-08-22T03:48:27.620Z,18.71
2018-08-22T03:48:58.984Z,18.73
2018-08-22T03:49:30.157Z,18.76
2018-08-22T03:50:01.452Z,18.78
2018-08-22T03:50:32.564Z,18.84
2018-08-22T03:51:03.811Z,18.89
2018-08-22T03:51:34.957Z,18.95
2018-08-22T03:52:06.124Z,19.01
2018-08-22T03:52:37.248Z,19.05
2018-08-22T03:53:08.367Z,19.08
2018-08-22T03:53:39.590Z,19.14
2018-08-22T03:54:10.721Z,19.17
2018-08-22T03:54:41.945Z,19.22
2018-08-22T03:55:13.068Z,19.23
2018-08-22T03:55:44.191Z,19.24
2018-08-22T03:56:15.297Z,19.23
2018-08-22T03:56:46.407Z,19.25
2018-08-22T03:57:17.529Z,19.26
2018-08-22T03:57:48.701Z,19.27
2018-08-22T03:58:19.856Z,19.28
2018-08-22T03:58:51.012Z,19.32
2018-08-22T03:59:22.173Z,19.37
2018-08-22T03:59:53.292Z,19.44
2018-08-22T04:00:24.468Z,19.52
2018-08-22T04:00:55.634Z,19.61
2018-08-22T04:01:26.818Z,19.70
2018-08-22T04:01:58.012Z,19.78
2018-08-22T04:02:29.125Z,19.87
2018-08-22T04:03:00.293Z,19.97
2018-08-22T04:03:31.408Z,20.02
2018-08-22T04:04:02.614Z,20.06
2018-08-22T04:04:33.788Z,20.12
2018-08-22T04:05:04.935Z,20.24
2018-08-22T04:05:36.112Z,20.20
2018-08-22T04:06:07.228Z,20.27
2018-08-22T04:06:38.341Z,20.29
2018-08-22T04:07:09.517Z,20.29
2018-08-22T04:07:40.717Z,20.22
2018-08-22T04:08:11.892Z,20.19
2018-08-22T04:08:43.061Z,20.14
2018-08-22T04:09:14.188Z,20.12
2018-08-22T04:09:45.453Z,20.05
2018-08-22T04:10:16.659Z,20.07
2018-08-22T04:10:47.853Z,20.09
2018-08-22T04:11:19.032Z,20.10
2018-08-22T04:11:50.266Z,20.18
2018-08-22T04:12:21.388Z,20.27
2018-08-22T04:12:52.630Z,20.44
2018-08-22T04:13:23.812Z,20.50
2018-08-22T04:13:54.935Z,20.65
2018-08-22T04:14:26.048Z,20.81
2018-08-22T04:14:57.272Z,20.93
2018-08-22T04:15:28.461Z,21.10
2018-08-22T04:15:59.644Z,21.23
2018-08-22T04:16:30.808Z,21.37
2018-08-22T04:17:01.948Z,21.44
2018-08-22T04:17:33.055Z,21.53
2018-08-22T04:18:04.171Z,21.62
2018-08-22T04:18:35.284Z,21.69
2018-08-22T04:19:06.396Z,21.70
2018-08-22T04:19:37.499Z,21.82
2018-08-22T04:20:08.644Z,21.91
2018-08-22T04:20:39.763Z,21.90
2018-08-22T04:21:10.880Z,21.87
2018-08-22T04:21:42.096Z,21.84
2018-08-22T04:22:13.342Z,21.86
2018-08-22T04:22:44.528Z,21.95
2018-08-22T04:23:15.644Z,21.96
2018-08-22T04:23:46.876Z,22.11
2018-08-22T04:24:17.996Z,22.23
2018-08-22T04:24:49.222Z,22.27
2018-08-22T04:25:20.380Z,22.45
2018-08-22T04:25:51.507Z,22.56
2018-08-22T04:26:22.629Z,22.63
2018-08-22T04:26:53.748Z,22.70
2018-08-22T04:27:24.917Z,22.78
2018-08-22T04:27:56.040Z,22.88
2018-08-22T04:28:27.260Z,23.02
2018-08-22T04:28:58.389Z,23.17
2018-08-22T04:29:29.503Z,23.28
2018-08-22T04:30:00.725Z,23.37
2018-08-22T04:30:31.907Z,23.42
2018-08-22T04:31:03.140Z,23.40
2018-08-22T04:31:34.335Z,23.40
2018-08-22T04:32:05.510Z,23.56
2018-08-22T04:32:36.756Z,23.63
2018-08-22T04:33:07.886Z,23.79
2018-08-22T04:33:39.117Z,23.91
2018-08-22T04:34:10.312Z,24.04
2018-08-22T04:34:41.416Z,24.16
2018-08-22T04:36:00.768Z,24.25
2018-08-22T04:36:31.939Z,24.26
2018-08-22T04:37:03.110Z,24.38
2018-08-22T04:37:34.230Z,24.51
2018-08-22T04:38:05.407Z,24.65
2018-08-22T04:38:36.518Z,24.76
2018-08-22T04:39:07.686Z,24.84
2018-08-22T04:39:38.857Z,24.91
2018-08-22T04:40:10.147Z,24.97
2018-08-22T04:40:41.330Z,25.09
2018-08-22T04:41:12.517Z,25.07
2018-08-22T04:41:43.643Z,25.21
2018-08-22T04:42:14.868Z,25.17
2018-08-22T04:42:46.066Z,25.35
2018-08-22T04:43:17.185Z,25.54
2018-08-22T04:43:48.421Z,25.62
2018-08-22T04:44:19.606Z,25.74
2018-08-22T04:44:50.836Z,25.86
2018-08-22T04:45:22.078Z,25.97
2018-08-22T04:45:53.293Z,26.06
2018-08-22T04:46:24.484Z,26.18
2018-08-22T04:46:55.661Z,26.26
2018-08-22T04:47:26.793Z,26.39
2018-08-22T04:47:57.916Z,26.52
2018-08-22T04:48:29.075Z,26.59
2018-08-22T04:49:00.247Z,26.70
2018-08-22T04:49:31.379Z,26.71
2018-08-22T04:50:02.501Z,26.76
2018-08-22T04:50:33.682Z,26.62
2018-08-22T04:51:04.920Z,26.65
2018-08-22T04:51:36.082Z,26.75
2018-08-22T04:52:07.257Z,26.84
2018-08-22T04:52:38.379Z,26.86
2018-08-22T04:53:09.600Z,26.94
2018-08-22T04:53:40.734Z,27.12
2018-08-22T04:54:11.965Z,27.21
2018-08-22T04:54:43.088Z,27.23
2018-08-22T04:55:14.293Z,27.30
2018-08-22T04:55:45.435Z,27.33
2018-08-22T04:56:16.646Z,27.37
2018-08-22T04:56:47.780Z,27.39
2018-08-22T04:57:18.906Z,27.47
2018-08-22T04:57:50.025Z,27.53
2018-08-22T04:58:21.204Z,27.63
2018-08-22T04:58:52.380Z,27.69
2018-08-22T04:59:23.551Z,27.61
2018-08-22T04:59:54.689Z,27.72
2018-08-22T05:00:25.925Z,27.72
2018-08-22T05:00:57.104Z,27.79
2018-08-22T05:01:28.337Z,27.81
2018-08-22T05:01:59.452Z,27.85
2018-08-22T05:02:30.573Z,27.81
2018-08-22T05:03:01.699Z,27.89
2018-08-22T05:03:32.867Z,28.00
2018-08-22T05:04:04.008Z,28.12
2018-08-22T05:04:35.184Z,28.17
2018-08-22T05:05:06.373Z,28.16
2018-08-22T05:05:37.554Z,28.16
2018-08-22T05:06:08.756Z,28.26
2018-08-22T05:06:40.044Z,28.26
2018-08-22T05:07:11.228Z,28.30
2018-08-22T05:07:42.348Z,28.26
2018-08-22T05:08:13.534Z,28.22
2018-08-22T05:08:44.714Z,28.25
2018-08-22T05:09:15.885Z,28.33
2018-08-22T05:09:47.008Z,28.37
2018-08-22T05:10:18.191Z,28.17
2018-08-22T05:10:49.359Z,28.15
2018-08-22T05:11:20.555Z,28.16
2018-08-22T05:11:51.796Z,28.15
2018-08-22T05:12:22.920Z,28.15
2018-08-22T05:12:54.062Z,28.16
2018-08-22T05:13:25.188Z,27.93
2018-08-22T05:13:56.413Z,27.77
2018-08-22T05:14:27.545Z,27.75
2018-08-22T05:14:58.728Z,27.77
2018-08-22T05:15:29.924Z,27.83
2018-08-22T05:16:01.044Z,27.74
2018-08-22T05:16:32.273Z,27.73
2018-08-22T05:17:03.425Z,27.66
2018-08-22T05:17:34.535Z,27.77
2018-08-22T05:18:05.711Z,27.82
2018-08-22T05:18:36.842Z,27.93
2018-08-22T05:19:08.013Z,28.03
2018-08-22T05:19:39.149Z,28.11
2018-08-22T05:20:10.336Z,28.10
2018-08-22T05:20:41.443Z,28.05
2018-08-22T05:21:12.570Z,28.10
2018-08-22T05:21:43.683Z,28.07
2018-08-22T05:22:14.900Z,28.28
2018-08-22T05:22:46.801Z,28.40
2018-08-22T05:23:17.973Z,28.47
2018-08-22T05:23:49.107Z,28.43
2018-08-22T05:24:20.345Z,28.27
2018-08-22T05:24:51.613Z,28.37
2018-08-22T05:25:22.693Z,28.38
2018-08-22T05:25:53.877Z,28.47
2018-08-22T05:26:25.005Z,28.31
2018-08-22T05:26:56.144Z,28.16
2018-08-22T05:27:27.373Z,28.07
2018-08-22T05:27:58.630Z,28.10
2018-08-22T05:28:29.810Z,28.14
2018-08-22T05:29:00.935Z,28.09
2018-08-22T05:29:32.114Z,27.99
2018-08-22T05:30:03.307Z,27.88
2018-08-22T05:30:34.459Z,27.89
2018-08-22T05:31:05.629Z,27.87
2018-08-22T05:31:36.814Z,27.86
2018-08-22T05:32:08.067Z,27.91
2018-08-22T05:32:39.265Z,27.97
2018-08-22T05:33:10.496Z,28.01
2018-08-22T05:33:41.689Z,28.05
2018-08-22T05:34:12.872Z,28.21
2018-08-22T05:34:44.048Z,28.30
2018-08-22T05:35:15.183Z,28.35
2018-08-22T05:35:46.316Z,28.47
2018-08-22T05:36:17.493Z,28.60
2018-08-22T05:36:48.712Z,28.69
2018-08-22T05:37:19.828Z,28.72
2018-08-22T05:37:50.968Z,28.82
2018-08-22T05:38:22.128Z,28.87
2018-08-22T05:38:53.365Z,28.83
2018-08-22T05:39:24.480Z,28.78
2018-08-22T05:39:55.711Z,28.69
2018-08-22T05:40:26.835Z,28.71
2018-08-22T05:40:57.952Z,28.67
2018-08-22T05:41:29.177Z,28.60
2018-08-22T05:42:00.306Z,28.60
2018-08-22T05:42:31.515Z,28.57
2018-08-22T05:43:02.642Z,28.36
2018-08-22T05:43:33.752Z,28.29
2018-08-22T05:44:04.989Z,28.30
2018-08-22T05:44:36.176Z,28.39
2018-08-22T05:45:07.378Z,28.29
2018-08-22T05:45:38.545Z,28.01
2018-08-22T05:46:09.782Z,27.96
2018-08-22T05:46:40.911Z,28.00
2018-08-22T05:47:12.136Z,27.97
2018-08-22T05:47:43.405Z,27.87
2018-08-22T05:48:14.584Z,27.89
2018-08-22T05:48:45.691Z,27.90
2018-08-22T05:49:16.899Z,27.92
2018-08-22T05:49:47.965Z,27.97
2018-08-22T05:50:19.083Z,27.96
2018-08-22T05:50:50.264Z,27.86
2018-08-22T05:51:21.440Z,27.84
2018-08-22T05:51:52.612Z,27.58
2018-08-22T05:52:23.786Z,27.53
2018-08-22T05:52:54.968Z,27.46
2018-08-22T05:53:26.198Z,27.34
2018-08-22T05:53:57.322Z,27.30
2018-08-22T05:54:28.453Z,27.30
2018-08-22T05:54:59.612Z,27.31
2018-08-22T05:55:31.261Z,27.26
2018-08-22T05:56:02.581Z,27.20
2018-08-22T05:56:33.772Z,27.18
2018-08-22T05:57:05.001Z,27.18
2018-08-22T05:57:36.221Z,27.19
2018-08-22T05:58:07.417Z,27.19
2018-08-22T05:58:38.531Z,27.22
2018-08-22T05:59:09.651Z,27.23
2018-08-22T05:59:40.764Z,27.19
2018-08-22T06:00:11.945Z,27.22
2018-08-22T06:00:43.077Z,27.24
2018-08-22T06:01:14.199Z,27.26
2018-08-22T06:01:45.372Z,27.17
2018-08-22T06:02:16.553Z,27.20
2018-08-22T06:02:47.780Z,27.17
2018-08-22T06:03:18.903Z,27.19
2018-08-22T06:03:50.037Z,27.20
2018-08-22T06:04:21.241Z,27.21
2018-08-22T06:04:52.481Z,27.18
2018-08-22T06:05:23.604Z,27.23
2018-08-22T06:05:54.757Z,27.22
2018-08-22T06:06:25.936Z,27.18
2018-08-22T06:06:57.105Z,26.96
2018-08-22T06:07:28.267Z,26.98
2018-08-22T06:07:59.490Z,27.01
2018-08-22T06:08:30.678Z,26.95
2018-08-22T06:09:01.850Z,26.91
2018-08-22T06:09:32.950Z,26.90
2018-08-22T06:10:04.060Z,26.92
2018-08-22T06:10:35.237Z,26.89
2018-08-22T06:11:06.432Z,26.94
2018-08-22T06:11:37.600Z,26.89
2018-08-22T06:12:08.705Z,26.89
2018-08-22T06:12:39.812Z,26.82
2018-08-22T06:13:10.981Z,26.68
2018-08-22T06:13:42.093Z,26.64
2018-08-22T06:14:13.310Z,26.61
2018-08-22T06:14:44.501Z,26.62
2018-08-22T06:15:15.653Z,26.64
2018-08-22T06:15:46.810Z,26.57
2018-08-22T06:16:17.916Z,26.61
2018-08-22T06:16:49.031Z,26.63
2018-08-22T06:17:20.157Z,26.63
2018-08-22T06:17:51.356Z,26.66
2018-08-22T06:18:22.459Z,26.62
2018-08-22T06:18:53.637Z,26.55
2018-08-22T06:19:24.757Z,26.55
2018-08-22T06:19:55.989Z,26.59
2018-08-22T06:20:27.161Z,26.63
2018-08-22T06:20:58.361Z,26.64
2018-08-22T06:21:29.557Z,26.59
2018-08-22T06:22:00.681Z,26.57
2018-08-22T06:22:31.893Z,26.51
2018-08-22T06:23:03.004Z,26.40
2018-08-22T06:23:34.252Z,26.39
2018-08-22T06:24:05.477Z,26.38
2018-08-22T06:24:36.595Z,26.33
2018-08-22T06:25:07.782Z,26.33
2018-08-22T06:25:39.035Z,26.36
2018-08-22T06:26:10.274Z,26.33
2018-08-22T06:26:41.440Z,26.32
2018-08-22T06:27:12.560Z,26.34
2018-08-22T06:27:43.675Z,26.31
2018-08-22T06:28:14.856Z,26.28
2018-08-22T06:28:46.081Z,26.28
2018-08-22T06:29:17.237Z,26.26
2018-08-22T06:29:48.354Z,26.26
2018-08-22T06:30:19.548Z,26.21
2018-08-22T06:30:50.671Z,26.24
2018-08-22T06:31:21.868Z,26.22
2018-08-22T06:31:53.055Z,26.21
2018-08-22T06:32:24.192Z,26.17
2018-08-22T06:32:55.363Z,26.22
2018-08-22T06:33:26.473Z,26.30
2018-08-22T06:33:57.663Z,26.31
2018-08-22T06:34:28.853Z,26.26
2018-08-22T06:35:00.061Z,26.25
2018-08-22T06:35:31.220Z,26.27
2018-08-22T06:36:02.337Z,26.24
2018-08-22T06:36:33.601Z,26.19
2018-08-22T06:37:04.783Z,26.14
2018-08-22T06:37:35.968Z,26.15
2018-08-22T06:38:07.150Z,26.12
2018-08-22T06:38:38.283Z,26.07
2018-08-22T06:39:09.404Z,25.99
2018-08-22T06:39:40.577Z,25.91
2018-08-22T06:40:11.767Z,25.86
2018-08-22T06:40:42.904Z,25.82
2018-08-22T06:41:14.017Z,25.86
2018-08-22T06:41:45.189Z,25.90
2018-08-22T06:42:16.356Z,25.91